2A8 weather

Addison Municipal Airport
Addison, Alabama, United States

Public forecast

Using degrees Fahrenheit for public forecast. Weather courtesy of forecast.io.

Closest aviation weather report (METAR) to Addison Municipal Airport

Closest report is Cullman Regional Airport-Folsom Field, 15.2 nm (28.2 km) ENE. Retrieved 2019/10/15 17:35 UTC (18 minutes ago):

KCMD 151735Z AUTO 18004KT 10SM OVC020 21/14 A3007 RMK AO2 T02050140

Closest aviation forecast (TAF) to Addison Municipal Airport

Closest forecast is Huntsville International Carl T Jones Field, 31.6 nm (58.5 km) NE. Retrieved 2019/10/15 12:22 UTC (6 hours ago):

TAF KHSV 151120Z 1512/1612 12003KT P6SM OVC040 FM151500 15007KT P6SM BKN025 OVC090 FM151900 15007KT 6SM -RA BR BKN015 OVC025 FM160000 16005KT 6SM BR BKN010 OVC020 FM160500 30006KT 4SM BR BKN007 OVC012